createdAt,value
2019-04-10T00:02:10.258Z,10.60
2019-04-10T00:04:38.938Z,10.50
2019-04-10T00:07:14.484Z,10.50
2019-04-10T00:09:36.463Z,10.60
2019-04-10T00:12:05.338Z,10.60
2019-04-10T00:14:33.054Z,10.50
2019-04-10T00:17:00.606Z,10.70
2019-04-10T00:19:28.700Z,10.60
2019-04-10T00:21:56.387Z,10.60
2019-04-10T00:24:24.020Z,10.70
2019-04-10T00:26:52.283Z,10.70
2019-04-10T00:29:20.302Z,10.70
2019-04-10T00:31:48.741Z,10.70
2019-04-10T00:34:16.479Z,10.50
2019-04-10T00:36:44.020Z,10.40
2019-04-10T00:39:12.587Z,10.70
2019-04-10T00:41:40.698Z,10.80
2019-04-10T00:44:08.305Z,10.40
2019-04-10T00:46:35.858Z,10.40
2019-04-10T00:49:03.390Z,10.30
2019-04-10T00:51:31.040Z,10.40
2019-04-10T00:53:59.339Z,10.40
2019-04-10T00:56:27.000Z,10.30
2019-04-10T00:58:55.437Z,10.30
2019-04-10T01:01:23.677Z,10.50
2019-04-10T01:03:51.316Z,10.40
2019-04-10T01:06:19.813Z,10.30
2019-04-10T01:08:47.467Z,10.20
2019-04-10T01:11:15.200Z,10.10
2019-04-10T01:13:43.135Z,10.20
2019-04-10T01:16:11.343Z,10.20
2019-04-10T01:18:39.474Z,10.10
2019-04-10T01:21:08.209Z,10.10
2019-04-10T01:23:35.917Z,10.10
2019-04-10T01:26:03.724Z,10.10
2019-04-10T01:28:31.285Z,10.10
2019-04-10T01:30:59.136Z,10.10
2019-04-10T01:33:26.769Z,10.10
2019-04-10T01:35:54.406Z,10.10
2019-04-10T01:38:21.960Z,10.00
2019-04-10T01:40:49.500Z,10.00
2019-04-10T01:43:19.683Z,10.00
2019-04-10T01:45:46.328Z,10.00
2019-04-10T01:48:13.872Z,10.00
2019-04-10T01:50:42.307Z,9.90
2019-04-10T01:53:09.942Z,9.90
2019-04-10T01:55:37.496Z,10.00
2019-04-10T01:58:06.665Z,9.90
2019-04-10T02:00:35.855Z,9.90
2019-04-10T02:03:03.528Z,9.80
2019-04-10T02:05:32.463Z,9.80
2019-04-10T02:08:07.644Z,9.90
2019-04-10T02:10:29.389Z,9.80
2019-04-10T02:12:56.991Z,9.80
2019-04-10T02:15:24.553Z,9.70
2019-04-10T02:17:52.931Z,9.60
2019-04-10T02:20:21.031Z,9.70
2019-04-10T02:22:48.660Z,9.60
2019-04-10T02:25:16.206Z,9.60
2019-04-10T02:27:44.706Z,9.60
2019-04-10T02:30:14.684Z,9.70
2019-04-10T02:32:45.200Z,9.70
2019-04-10T02:35:16.519Z,9.80
2019-04-10T02:37:41.687Z,9.60
2019-04-10T02:40:10.287Z,9.60
2019-04-10T02:42:38.841Z,9.70
2019-04-10T02:45:08.222Z,9.60
2019-04-10T02:47:37.040Z,9.50
2019-04-10T02:50:08.319Z,9.40
2019-04-10T02:52:38.322Z,9.40
2019-04-10T02:55:07.772Z,9.40
2019-04-10T02:57:37.456Z,9.30
2019-04-10T03:00:05.828Z,9.50
2019-04-10T03:02:33.668Z,9.40
2019-04-10T03:05:01.520Z,9.40
2019-04-10T03:07:29.078Z,9.30
2019-04-10T03:10:12.007Z,9.30
2019-04-10T03:12:25.897Z,9.20
2019-04-10T03:14:54.955Z,9.20
2019-04-10T03:17:22.658Z,9.30
2019-04-10T03:19:50.208Z,9.20
2019-04-10T03:22:18.721Z,9.20
2019-04-10T03:24:46.549Z,9.30
2019-04-10T03:27:14.308Z,9.20
2019-04-10T03:29:42.258Z,9.30
2019-04-10T03:32:33.007Z,9.30
2019-04-10T03:34:59.087Z,9.30
2019-04-10T03:37:26.643Z,9.20
2019-04-10T03:39:55.178Z,9.20
2019-04-10T03:42:23.242Z,9.20
2019-04-10T03:44:51.390Z,9.20
2019-04-10T03:47:19.619Z,9.20
2019-04-10T03:49:47.285Z,9.10
2019-04-10T03:52:14.842Z,9.10
2019-04-10T03:54:42.392Z,9.10
2019-04-10T03:57:10.141Z,9.10
2019-04-10T03:59:39.316Z,9.10
2019-04-10T04:02:07.240Z,9.00
2019-04-10T04:04:34.858Z,9.00
2019-04-10T04:07:02.413Z,9.10
2019-04-10T04:09:29.958Z,9.30
2019-04-10T04:11:57.884Z,9.30
2019-04-10T04:14:25.505Z,9.20
2019-04-10T04:16:53.034Z,9.00
2019-04-10T04:19:20.584Z,9.00
2019-04-10T04:21:48.243Z,9.00
2019-04-10T04:24:15.849Z,9.00
2019-04-10T04:26:43.624Z,8.90
2019-04-10T04:29:11.215Z,9.00
2019-04-10T04:31:39.696Z,8.90
2019-04-10T04:34:07.580Z,9.00
2019-04-10T04:36:35.267Z,8.90
2019-04-10T04:39:17.461Z,8.90
2019-04-10T04:41:33.787Z,8.90
2019-04-10T04:44:01.791Z,8.90
2019-04-10T04:46:29.441Z,8.80
2019-04-10T04:48:57.734Z,8.80
2019-04-10T04:51:26.011Z,8.80
2019-04-10T04:53:54.727Z,8.80
2019-04-10T04:56:22.357Z,8.90
2019-04-10T04:58:49.901Z,8.90
2019-04-10T05:01:17.458Z,8.80
2019-04-10T05:03:44.982Z,8.90
2019-04-10T05:06:12.610Z,8.90
2019-04-10T05:08:40.174Z,8.90
2019-04-10T05:11:07.749Z,8.90
2019-04-10T05:13:35.314Z,8.70
2019-04-10T05:16:02.861Z,8.70
2019-04-10T05:18:30.396Z,8.70
2019-04-10T05:20:58.816Z,8.70
2019-04-10T05:23:26.619Z,8.70
2019-04-10T05:25:54.198Z,8.70
2019-04-10T05:28:22.202Z,8.70
2019-04-10T05:30:50.589Z,8.70
2019-04-10T05:33:18.398Z,8.80
2019-04-10T05:35:45.907Z,8.80
2019-04-10T05:38:13.460Z,8.80
2019-04-10T05:40:42.136Z,8.90
2019-04-10T05:43:09.832Z,8.90
2019-04-10T05:45:38.007Z,8.90
2019-04-10T05:48:06.700Z,8.90
2019-04-10T05:50:35.605Z,9.00
2019-04-10T05:53:04.299Z,9.00
2019-04-10T05:55:33.024Z,9.10
2019-04-10T05:58:01.593Z,9.10
2019-04-10T06:00:29.379Z,9.10
2019-04-10T06:02:56.915Z,9.20
2019-04-10T06:05:24.513Z,9.20
2019-04-10T06:07:52.089Z,9.30
2019-04-10T06:10:19.730Z,9.20
2019-04-10T06:12:47.284Z,9.20
2019-04-10T06:15:14.862Z,9.20
2019-04-10T06:17:42.833Z,9.20
2019-04-10T06:20:11.179Z,9.20
2019-04-10T06:22:38.989Z,9.20
2019-04-10T06:25:08.642Z,9.30
2019-04-10T06:27:36.729Z,9.30
2019-04-10T06:30:05.791Z,9.30
2019-04-10T06:32:34.385Z,9.40
2019-04-10T06:35:02.285Z,9.50
2019-04-10T06:37:30.364Z,9.40
2019-04-10T06:40:07.686Z,9.50
2019-04-10T06:42:27.250Z,9.50
2019-04-10T06:44:54.805Z,9.50
2019-04-10T06:47:22.355Z,9.70
2019-04-10T06:49:50.516Z,9.70
2019-04-10T06:52:18.585Z,9.80
2019-04-10T06:54:46.996Z,9.80
2019-04-10T06:57:14.690Z,9.90
2019-04-10T06:59:42.408Z,10.00
2019-04-10T07:02:22.005Z,10.00
2019-04-10T07:04:46.019Z,10.00
2019-04-10T07:07:12.463Z,10.00
2019-04-10T07:09:38.036Z,10.00
2019-04-10T07:12:05.616Z,10.00
2019-04-10T07:14:36.292Z,10.00
2019-04-10T07:17:05.461Z,10.00
2019-04-10T07:19:32.379Z,10.00
2019-04-10T07:22:01.484Z,10.10
2019-04-10T07:24:29.334Z,9.90
2019-04-10T07:26:58.033Z,10.00
2019-04-10T07:29:27.684Z,10.00
2019-04-10T07:31:55.494Z,9.90
2019-04-10T07:34:26.382Z,10.00
2019-04-10T07:36:52.344Z,10.00
2019-04-10T07:39:19.904Z,10.00
2019-04-10T07:41:47.457Z,10.00
2019-04-10T07:44:14.995Z,10.10
2019-04-10T07:46:42.985Z,10.00
2019-04-10T07:49:10.623Z,10.10
2019-04-10T07:51:38.889Z,10.00
2019-04-10T07:54:06.537Z,10.00
2019-04-10T07:56:35.285Z,10.10
2019-04-10T07:59:03.021Z,10.00
2019-04-10T08:01:31.199Z,10.10
2019-04-10T08:03:58.897Z,10.10
2019-04-10T08:06:27.713Z,10.20
2019-04-10T08:08:55.559Z,10.30
2019-04-10T08:11:24.007Z,10.40
2019-04-10T08:13:51.723Z,10.40
2019-04-10T08:16:19.297Z,10.50
2019-04-10T08:18:47.758Z,10.50
2019-04-10T08:21:15.631Z,10.60
2019-04-10T08:23:44.482Z,10.80
2019-04-10T08:26:12.211Z,10.80
2019-04-10T08:28:39.819Z,10.90
2019-04-10T08:31:08.541Z,11.00
2019-04-10T08:33:36.679Z,11.10
2019-04-10T08:36:05.322Z,11.30
2019-04-10T08:38:33.040Z,11.30
2019-04-10T08:41:00.778Z,11.40
2019-04-10T08:43:29.555Z,11.50
2019-04-10T08:45:58.841Z,11.50
2019-04-10T08:48:29.026Z,11.60
2019-04-10T08:50:56.801Z,11.70
2019-04-10T08:53:24.465Z,11.80
2019-04-10T08:55:52.616Z,12.00
2019-04-10T08:58:20.867Z,12.10
2019-04-10T09:00:50.970Z,12.30
2019-04-10T09:03:18.782Z,12.50
2019-04-10T09:05:46.982Z,12.70
2019-04-10T09:08:14.944Z,12.80
2019-04-10T09:10:42.789Z,12.90
2019-04-10T09:13:10.502Z,13.10
2019-04-10T09:15:40.183Z,13.20
2019-04-10T09:18:08.268Z,13.40
2019-04-10T09:20:38.282Z,13.40
2019-04-10T09:23:23.785Z,13.60
2019-04-10T09:25:35.426Z,13.60
2019-04-10T09:28:04.216Z,14.00
2019-04-10T09:30:33.825Z,14.00
2019-04-10T09:33:02.956Z,14.20
2019-04-10T09:35:30.895Z,14.50
2019-04-10T09:37:58.738Z,14.70
2019-04-10T09:40:26.329Z,14.70
2019-04-10T09:42:53.905Z,14.90
2019-04-10T09:45:22.283Z,14.90
2019-04-10T09:47:50.702Z,14.80
2019-04-10T09:50:19.241Z,14.80
2019-04-10T09:52:46.917Z,15.00
2019-04-10T09:55:14.485Z,15.20
2019-04-10T09:57:43.103Z,15.20
2019-04-10T10:00:11.930Z,15.50
2019-04-10T10:02:39.913Z,15.40
2019-04-10T10:05:08.464Z,15.20
2019-04-10T10:07:36.878Z,15.30
2019-04-10T10:10:06.584Z,15.40
2019-04-10T10:12:34.380Z,15.60
2019-04-10T10:15:02.533Z,15.80
2019-04-10T10:17:30.800Z,15.60
2019-04-10T10:19:59.461Z,15.60
2019-04-10T10:22:27.399Z,15.50
2019-04-10T10:24:55.268Z,15.70
2019-04-10T10:27:24.701Z,16.20
2019-04-10T10:29:53.544Z,16.20
2019-04-10T10:32:21.723Z,16.60
2019-04-10T10:34:50.229Z,16.20
2019-04-10T10:37:18.686Z,16.40
2019-04-10T10:39:47.239Z,16.50
2019-04-10T10:42:15.773Z,16.60
2019-04-10T10:44:43.413Z,16.70
2019-04-10T10:47:11.785Z,16.80
2019-04-10T10:49:40.224Z,16.90
2019-04-10T10:52:08.962Z,16.80
2019-04-10T10:54:36.987Z,17.20
2019-04-10T10:57:04.876Z,17.40
2019-04-10T10:59:33.437Z,17.60
2019-04-10T11:02:02.289Z,17.80
2019-04-10T11:04:30.083Z,18.00
2019-04-10T11:09:28.419Z,18.00
2019-04-10T11:11:56.238Z,18.10
2019-04-10T11:14:23.794Z,18.00
2019-04-10T11:16:51.640Z,17.80
2019-04-10T11:19:19.822Z,17.90
2019-04-10T11:21:47.494Z,17.60
2019-04-10T11:24:15.078Z,17.70
2019-04-10T11:26:43.784Z,17.60
2019-04-10T11:29:11.863Z,17.70
2019-04-10T11:31:39.700Z,17.50
2019-04-10T11:34:08.263Z,18.00
2019-04-10T11:36:36.620Z,17.80
2019-04-10T11:41:35.091Z,17.60
2019-04-10T11:44:02.897Z,17.60
2019-04-10T11:46:32.088Z,17.80
2019-04-10T11:49:00.864Z,17.90
2019-04-10T11:51:31.568Z,18.00
2019-04-10T11:53:59.216Z,17.60
2019-04-10T11:56:30.050Z,17.80
2019-04-10T11:58:56.991Z,17.70
2019-04-10T12:01:25.610Z,17.40
2019-04-10T12:03:56.020Z,17.50
2019-04-10T12:06:25.132Z,17.10
2019-04-10T12:09:13.640Z,16.90
2019-04-10T12:11:21.666Z,16.90
2019-04-10T12:13:50.522Z,17.00
2019-04-10T12:16:18.122Z,17.00
2019-04-10T12:18:46.800Z,16.70
2019-04-10T12:21:15.471Z,16.90
2019-04-10T12:23:43.356Z,16.70
2019-04-10T12:26:11.693Z,16.60
2019-04-10T12:28:40.296Z,16.50
2019-04-10T12:31:07.994Z,16.70
2019-04-10T12:33:35.942Z,17.10
2019-04-10T12:36:04.537Z,16.70
2019-04-10T12:38:32.146Z,16.70
2019-04-10T12:40:59.723Z,16.90
2019-04-10T12:43:27.367Z,17.00
2019-04-10T12:45:54.911Z,17.20
2019-04-10T12:48:23.026Z,17.20
2019-04-10T12:50:50.689Z,17.20
2019-04-10T12:53:19.120Z,17.60
2019-04-10T12:55:46.758Z,17.70
2019-04-10T12:58:17.514Z,17.40
2019-04-10T13:00:44.593Z,17.40
2019-04-10T13:03:12.379Z,17.80
2019-04-10T13:05:41.044Z,17.90
2019-04-10T13:08:20.238Z,17.90
2019-04-10T13:10:38.065Z,17.60
2019-04-10T13:13:06.023Z,17.60
2019-04-10T13:15:33.634Z,17.50
2019-04-10T13:18:01.200Z,17.10
2019-04-10T13:20:29.469Z,16.90
2019-04-10T13:22:58.192Z,16.90
2019-04-10T13:25:26.070Z,16.60
2019-04-10T13:27:54.830Z,16.20
2019-04-10T13:30:22.451Z,16.30
2019-04-10T13:32:50.106Z,16.30
2019-04-10T13:35:17.936Z,16.30
2019-04-10T13:37:45.591Z,16.30
2019-04-10T13:40:13.231Z,16.20
2019-04-10T13:42:41.149Z,16.20
2019-04-10T13:45:09.015Z,16.20
2019-04-10T13:47:36.687Z,16.30
2019-04-10T13:50:08.473Z,16.20
2019-04-10T13:52:38.526Z,16.10
2019-04-10T13:55:07.399Z,16.00
2019-04-10T13:57:35.658Z,16.00
2019-04-10T14:00:05.788Z,15.90
2019-04-10T14:02:35.107Z,16.00
2019-04-10T14:05:03.603Z,16.00
2019-04-10T14:07:31.692Z,15.80
2019-04-10T14:10:00.711Z,15.80
2019-04-10T14:12:29.110Z,15.70
2019-04-10T14:14:57.328Z,15.70
2019-04-10T14:17:25.776Z,15.80
2019-04-10T14:19:54.161Z,15.60
2019-04-10T14:22:21.887Z,15.60
2019-04-10T14:24:50.754Z,15.50
2019-04-10T14:27:21.547Z,15.60
2019-04-10T14:29:49.759Z,15.60
2019-04-10T14:32:24.979Z,15.90
2019-04-10T14:34:52.704Z,15.90
2019-04-10T14:37:21.203Z,15.90
2019-04-10T14:39:49.383Z,16.10
2019-04-10T14:42:18.213Z,16.40
2019-04-10T14:44:46.423Z,16.60
2019-04-10T14:47:14.983Z,16.70
2019-04-10T14:49:43.043Z,17.00
2019-04-10T14:52:10.787Z,17.00
2019-04-10T14:54:39.661Z,17.00
2019-04-10T14:57:07.404Z,17.10
2019-04-10T14:59:35.928Z,17.40
2019-04-10T15:02:06.313Z,17.40
2019-04-10T15:04:35.195Z,17.80
2019-04-10T15:07:03.845Z,18.00
2019-04-10T15:09:31.472Z,18.10
2019-04-10T15:11:59.360Z,18.10
2019-04-10T15:14:27.847Z,18.20
2019-04-10T15:17:01.731Z,18.20
2019-04-10T15:19:24.928Z,18.40
2019-04-10T15:21:53.988Z,18.30
2019-04-10T15:24:21.742Z,18.50
2019-04-10T15:26:49.453Z,18.40
2019-04-10T15:29:16.993Z,18.00
2019-04-10T15:31:44.567Z,17.80
2019-04-10T15:34:12.120Z,17.50
2019-04-10T15:36:40.161Z,17.30
2019-04-10T15:39:08.712Z,17.00
2019-04-10T15:41:36.386Z,17.00
2019-04-10T15:44:04.014Z,16.80
2019-04-10T15:46:31.557Z,16.50
2019-04-10T15:48:59.108Z,16.40
2019-04-10T15:51:27.932Z,16.10
2019-04-10T15:53:55.567Z,15.90
2019-04-10T15:56:23.135Z,16.00
2019-04-10T15:58:52.028Z,16.10
2019-04-10T16:01:19.802Z,16.10
2019-04-10T16:03:47.343Z,15.90
2019-04-10T16:06:15.373Z,15.70
2019-04-10T16:08:42.925Z,15.50
2019-04-10T16:11:14.826Z,15.50
2019-04-10T16:13:44.412Z,15.50
2019-04-10T16:16:30.350Z,15.40
2019-04-10T16:19:14.665Z,15.40
2019-04-10T16:21:42.190Z,15.30
2019-04-10T16:24:17.446Z,15.30
2019-04-10T16:26:44.995Z,15.30
2019-04-10T16:29:12.555Z,15.30
2019-04-10T16:31:40.100Z,15.20
2019-04-10T16:34:07.659Z,15.20
2019-04-10T16:36:35.268Z,15.10
2019-04-10T16:39:03.686Z,15.00
2019-04-10T16:41:31.279Z,15.00
2019-04-10T16:43:58.871Z,15.00
2019-04-10T16:46:26.432Z,15.00
2019-04-10T16:48:53.997Z,14.80
2019-04-10T16:51:21.531Z,14.70
2019-04-10T16:53:49.063Z,14.60
2019-04-10T16:56:17.531Z,14.50
2019-04-10T16:58:45.450Z,14.40
2019-04-10T17:01:12.995Z,14.30
2019-04-10T17:03:40.542Z,14.10
2019-04-10T17:06:08.267Z,14.10
2019-04-10T17:08:37.399Z,14.10
2019-04-10T17:11:05.281Z,14.00
2019-04-10T17:13:32.850Z,14.00
2019-04-10T17:16:01.623Z,13.80
2019-04-10T17:18:29.414Z,13.70
2019-04-10T17:20:57.233Z,13.60
2019-04-10T17:23:24.935Z,13.50
2019-04-10T17:25:52.664Z,13.50
2019-04-10T17:28:22.093Z,13.40
2019-04-10T17:30:49.816Z,13.30
2019-04-10T17:33:18.508Z,13.20
2019-04-10T17:35:47.456Z,13.10
2019-04-10T17:38:15.186Z,13.10
2019-04-10T17:40:48.739Z,13.00
2019-04-10T17:43:12.877Z,13.00
2019-04-10T17:45:40.720Z,12.90
2019-04-10T17:48:09.400Z,13.00
2019-04-10T17:50:37.322Z,12.80
2019-04-10T17:53:05.155Z,12.90
2019-04-10T17:55:33.668Z,12.80
2019-04-10T17:58:01.282Z,12.80
2019-04-10T18:00:33.444Z,12.70
2019-04-10T18:03:01.272Z,12.70
2019-04-10T18:05:28.967Z,12.60
2019-04-10T18:07:56.626Z,12.50
2019-04-10T18:10:24.714Z,12.40
2019-04-10T18:12:52.381Z,12.40
2019-04-10T18:15:19.936Z,12.30
2019-04-10T18:17:47.559Z,12.40
2019-04-10T18:20:15.765Z,12.30
2019-04-10T18:22:43.447Z,12.30
2019-04-10T18:25:11.856Z,12.30
2019-04-10T18:27:40.619Z,12.20
2019-04-10T18:30:08.334Z,12.20
2019-04-10T18:32:35.974Z,12.20
2019-04-10T18:35:04.646Z,12.20
2019-04-10T18:37:32.865Z,12.10
2019-04-10T18:40:01.038Z,12.10
2019-04-10T18:42:28.800Z,12.00
2019-04-10T18:44:57.396Z,12.00
2019-04-10T18:47:25.063Z,11.90
2019-04-10T18:49:53.659Z,11.90
2019-04-10T18:52:21.558Z,11.80
2019-04-10T18:54:49.950Z,11.80
2019-04-10T18:57:17.846Z,11.80
2019-04-10T19:00:03.575Z,11.80
2019-04-10T19:02:49.071Z,11.70
2019-04-10T19:05:19.293Z,11.70
2019-04-10T19:07:48.152Z,11.60
2019-04-10T19:10:15.808Z,11.60
2019-04-10T19:12:43.478Z,11.60
2019-04-10T19:15:10.988Z,11.60
2019-04-10T19:17:39.015Z,11.60
2019-04-10T19:20:08.993Z,11.60
2019-04-10T19:22:37.100Z,11.60
2019-04-10T19:25:05.959Z,11.60
2019-04-10T19:27:33.976Z,11.60
2019-04-10T19:30:02.677Z,11.70
2019-04-10T19:32:35.410Z,11.70
2019-04-10T19:35:04.660Z,11.70
2019-04-10T19:37:32.501Z,11.70
2019-04-10T19:40:00.145Z,11.70
2019-04-10T19:42:27.738Z,11.70
2019-04-10T19:44:55.320Z,11.60
2019-04-10T19:47:23.229Z,11.60
2019-04-10T19:49:50.909Z,11.50
2019-04-10T19:52:18.514Z,11.40
2019-04-10T19:54:47.161Z,11.50
2019-04-10T19:57:15.287Z,11.50
2019-04-10T19:59:43.975Z,11.40
2019-04-10T20:02:12.767Z,11.40
2019-04-10T20:04:40.970Z,11.30
2019-04-10T20:07:09.024Z,11.30
2019-04-10T20:09:36.830Z,11.40
2019-04-10T20:12:04.441Z,11.40
2019-04-10T20:14:32.592Z,11.30
2019-04-10T20:17:00.221Z,11.30
2019-04-10T20:19:28.691Z,11.30
2019-04-10T20:21:56.540Z,11.30
2019-04-10T20:24:25.045Z,11.20
2019-04-10T20:26:53.774Z,11.20
2019-04-10T20:29:21.501Z,11.30
2019-04-10T20:31:50.355Z,11.30
2019-04-10T20:34:19.059Z,11.30
2019-04-10T20:36:47.083Z,11.20
2019-04-10T20:39:15.015Z,11.30
2019-04-10T20:41:49.454Z,11.30
2019-04-10T20:44:11.859Z,11.20
2019-04-10T20:46:39.405Z,11.20
2019-04-10T20:49:08.453Z,11.20
2019-04-10T20:51:36.111Z,11.20
2019-04-10T20:54:04.401Z,11.20
2019-04-10T20:56:32.731Z,11.10
2019-04-10T20:59:01.432Z,11.00
2019-04-10T21:01:29.148Z,11.00
2019-04-10T21:03:56.717Z,11.00
2019-04-10T21:06:25.399Z,11.00
2019-04-10T21:08:53.086Z,10.90
2019-04-10T21:11:20.734Z,10.90
2019-04-10T21:13:49.014Z,10.80
2019-04-10T21:16:17.608Z,10.80
2019-04-10T21:18:46.193Z,10.70
2019-04-10T21:21:14.410Z,10.70
2019-04-10T21:23:42.169Z,10.60
2019-04-10T21:26:10.230Z,10.50
2019-04-10T21:28:37.957Z,10.40
2019-04-10T21:31:10.119Z,10.40
2019-04-10T21:33:39.307Z,10.30
2019-04-10T21:36:07.231Z,10.30
2019-04-10T21:38:34.969Z,10.20
2019-04-10T21:41:03.463Z,10.20
2019-04-10T21:43:31.820Z,10.20
2019-04-10T21:45:59.640Z,10.20
2019-04-10T21:48:27.193Z,10.10
2019-04-10T21:50:54.788Z,10.00
2019-04-10T21:53:22.347Z,10.00
2019-04-10T21:55:49.890Z,9.90
2019-04-10T21:58:17.432Z,9.80
2019-04-10T22:01:01.523Z,9.70
2019-04-10T22:03:29.545Z,9.70
2019-04-10T22:06:01.709Z,9.70
2019-04-10T22:08:37.172Z,9.60
2019-04-10T22:11:06.536Z,9.50
2019-04-10T22:13:34.084Z,9.40
2019-04-10T22:16:01.819Z,9.40
2019-04-10T22:18:29.618Z,9.30
2019-04-10T22:20:58.551Z,9.20
2019-04-10T22:23:26.563Z,9.10
2019-04-10T22:25:54.311Z,9.10
2019-04-10T22:28:23.171Z,9.00
2019-04-10T22:30:50.842Z,9.10
2019-04-10T22:33:18.412Z,8.90
2019-04-10T22:35:46.312Z,8.90
2019-04-10T22:38:15.161Z,8.80
2019-04-10T22:40:44.052Z,8.80
2019-04-10T22:43:11.736Z,8.90
2019-04-10T22:45:40.160Z,8.80
2019-04-10T22:48:08.407Z,8.80
2019-04-10T22:50:36.476Z,8.70
2019-04-10T22:53:04.702Z,8.80
2019-04-10T22:55:33.721Z,8.70
2019-04-10T22:58:02.368Z,8.60
2019-04-10T23:00:33.344Z,8.60
2019-04-10T23:03:00.920Z,8.60
2019-04-10T23:05:28.777Z,8.70
2019-04-10T23:07:56.463Z,8.50
2019-04-10T23:10:24.789Z,8.50
2019-04-10T23:12:59.966Z,8.50
2019-04-10T23:15:21.692Z,8.50
2019-04-10T23:17:49.261Z,8.50
2019-04-10T23:20:16.860Z,8.50
2019-04-10T23:22:46.019Z,8.50
2019-04-10T23:25:13.686Z,8.50
2019-04-10T23:27:41.937Z,8.50
2019-04-10T23:30:11.207Z,8.50
2019-04-10T23:32:39.576Z,8.40
2019-04-10T23:35:07.384Z,8.40
2019-04-10T23:37:36.176Z,8.30
2019-04-10T23:40:04.953Z,8.30
2019-04-10T23:42:32.498Z,8.30
2019-04-10T23:45:00.048Z,8.30
2019-04-10T23:47:28.448Z,8.20
2019-04-10T23:49:56.152Z,8.20
2019-04-10T23:52:23.712Z,8.20
2019-04-10T23:54:51.432Z,8.20
2019-04-10T23:57:19.010Z,8.10
2019-04-10T23:59:46.854Z,8.20
